N875QS CYYZ-CYHZ
Flight info
| Callsign | N875QS |
|---|---|
| Flight time | 1h 36m |
| Altitude | 45000 |
| Route | DEDKI5 OLABA Q951 TALNO Q929 TOXAL DCT EBONY FUNDY5 |
| Aircraft | C700/M-SBDGHM1RWXY/LB2 |
Departure
| Time | 2026-05-06 02:06 |
|---|---|
| Airport | Toronto Pearson International Airport (CYYZ) |
Arrival
| Time | 2026-05-06 03:42 |
|---|---|
| Airport | Halifax / Stanfield International Airport (CYHZ) |
| Time | Latitude | Longitude | Altitude | Speed | Heading |
|---|---|---|---|---|---|
| 2026-05-06 01:31 | 43.69059 | -79.65254 | 553 ft | 0 kts | 228° |
| 2026-05-06 01:52 | 43.69057 | -79.65260 | 563 ft | 2 kts | 252° |
| 2026-05-06 01:52 | 43.69066 | -79.65278 | 562 ft | 1 kts | 338° |
| 2026-05-06 01:52 | 43.69085 | -79.65260 | 562 ft | 7 kts | 61° |
| 2026-05-06 01:53 | 43.69104 | -79.65217 | 566 ft | 1 kts | 52° |
| 2026-05-06 01:53 | 43.69142 | -79.65184 | 562 ft | 10 kts | 27° |
| 2026-05-06 01:53 | 43.69187 | -79.65176 | 565 ft | 7 kts | 6° |
| 2026-05-06 01:53 | 43.69209 | -79.65145 | 563 ft | 0 kts | 63° |
| 2026-05-06 01:54 | 43.69209 | -79.65122 | 564 ft | 7 kts | 116° |
| 2026-05-06 01:54 | 43.69150 | -79.65041 | 564 ft | 17 kts | 136° |
| 2026-05-06 01:54 | 43.69047 | -79.64911 | 563 ft | 7 kts | 136° |
| 2026-05-06 01:54 | 43.69045 | -79.64908 | 563 ft | 0 kts | 136° |
| 2026-05-06 01:55 | 43.69038 | -79.64898 | 563 ft | 7 kts | 135° |
| 2026-05-06 01:55 | 43.68984 | -79.64812 | 570 ft | 10 kts | 110° |
| 2026-05-06 01:56 | 43.69008 | -79.64709 | 564 ft | 15 kts | 50° |
| 2026-05-06 01:56 | 43.69101 | -79.64573 | 566 ft | 22 kts | 45° |
| 2026-05-06 01:56 | 43.69191 | -79.64444 | 574 ft | 6 kts | 46° |
| 2026-05-06 01:56 | 43.69207 | -79.64422 | 573 ft | 14 kts | 46° |
| 2026-05-06 01:57 | 43.69319 | -79.64260 | 577 ft | 20 kts | 47° |
| 2026-05-06 01:57 | 43.69379 | -79.64089 | 564 ft | 25 kts | 65° |
| 2026-05-06 01:57 | 43.69448 | -79.63883 | 562 ft | 12 kts | 65° |
| 2026-05-06 01:57 | 43.69482 | -79.63786 | 554 ft | 16 kts | 64° |
| 2026-05-06 01:58 | 43.69518 | -79.63650 | 552 ft | 9 kts | 99° |
| 2026-05-06 01:58 | 43.69494 | -79.63605 | 553 ft | 5 kts | 135° |
| 2026-05-06 01:58 | 43.69486 | -79.63594 | 553 ft | 0 kts | 136° |
| 2026-05-06 02:04 | 43.69479 | -79.63585 | 557 ft | 7 kts | 136° |
| 2026-05-06 02:04 | 43.69423 | -79.63518 | 556 ft | 1 kts | 160° |
| 2026-05-06 02:05 | 43.69385 | -79.63536 | 555 ft | 11 kts | 226° |
| 2026-05-06 02:05 | 43.69372 | -79.63562 | 553 ft | 0 kts | 232° |
| 2026-05-06 02:06 | 43.69345 | -79.63609 | 557 ft | 35 kts | 228° |
| 2026-05-06 02:06 | 43.68949 | -79.64191 | 572 ft | 128 kts | 227° |
| 2026-05-06 02:06 | 43.68234 | -79.65250 | 1118 ft | 160 kts | 226° |
| 2026-05-06 02:06 | 43.67449 | -79.66419 | 2204 ft | 177 kts | 226° |
| 2026-05-06 02:07 | 43.66522 | -79.67677 | 3329 ft | 197 kts | 226° |
| 2026-05-06 02:07 | 43.65513 | -79.69082 | 4465 ft | 215 kts | 228° |
| 2026-05-06 02:07 | 43.64258 | -79.70414 | 5573 ft | 246 kts | 207° |
| 2026-05-06 02:07 | 43.62502 | -79.70790 | 6692 ft | 267 kts | 182° |
| 2026-05-06 02:08 | 43.60723 | -79.69895 | 7751 ft | 281 kts | 155° |
| 2026-05-06 02:08 | 43.59149 | -79.68263 | 8950 ft | 285 kts | 149° |
| 2026-05-06 02:08 | 43.57600 | -79.66476 | 10186 ft | 294 kts | 151° |
| 2026-05-06 02:08 | 43.55959 | -79.64704 | 11380 ft | 310 kts | 152° |
| 2026-05-06 02:09 | 43.54370 | -79.62512 | 12584 ft | 335 kts | 138° |
| 2026-05-06 02:09 | 43.53074 | -79.59760 | 13844 ft | 350 kts | 126° |
| 2026-05-06 02:09 | 43.52199 | -79.56610 | 14980 ft | 367 kts | 112° |
| 2026-05-06 02:09 | 43.51822 | -79.53039 | 16176 ft | 387 kts | 97° |
| 2026-05-06 02:10 | 43.52070 | -79.49277 | 17422 ft | 402 kts | 82° |
| 2026-05-06 02:10 | 43.52777 | -79.45509 | 18651 ft | 409 kts | 78° |
| 2026-05-06 02:10 | 43.53550 | -79.41706 | 19796 ft | 414 kts | 75° |
| 2026-05-06 02:10 | 43.54417 | -79.37912 | 21017 ft | 415 kts | 74° |
| 2026-05-06 02:11 | 43.55273 | -79.34125 | 22266 ft | 413 kts | 75° |
| 2026-05-06 02:11 | 43.56110 | -79.30348 | 23543 ft | 410 kts | 74° |
| 2026-05-06 02:11 | 43.56940 | -79.26609 | 24653 ft | 407 kts | 74° |
| 2026-05-06 02:11 | 43.57795 | -79.22787 | 25028 ft | 430 kts | 73° |
| 2026-05-06 02:12 | 43.58707 | -79.18712 | 25143 ft | 458 kts | 73° |
| 2026-05-06 02:12 | 43.59649 | -79.14481 | 25948 ft | 463 kts | 73° |
| 2026-05-06 02:12 | 43.60596 | -79.10209 | 26735 ft | 469 kts | 73° |
| 2026-05-06 02:12 | 43.61553 | -79.05885 | 27503 ft | 474 kts | 73° |
| 2026-05-06 02:13 | 43.62523 | -79.01499 | 28252 ft | 480 kts | 73° |
| 2026-05-06 02:13 | 43.63500 | -78.97073 | 29021 ft | 485 kts | 73° |
| 2026-05-06 02:13 | 43.64487 | -78.92590 | 29783 ft | 490 kts | 73° |
| 2026-05-06 02:13 | 43.65483 | -78.88058 | 30447 ft | 495 kts | 73° |
| 2026-05-06 02:14 | 43.66485 | -78.83484 | 31066 ft | 500 kts | 73° |
| 2026-05-06 02:14 | 43.69526 | -78.70189 | 32653 ft | 513 kts | 66° |
| 2026-05-06 02:15 | 43.70943 | -78.65658 | 33248 ft | 514 kts | 65° |
| 2026-05-06 02:15 | 43.72347 | -78.61122 | 33985 ft | 512 kts | 65° |
| 2026-05-06 02:15 | 43.73728 | -78.56586 | 34542 ft | 512 kts | 65° |
| 2026-05-06 02:15 | 43.75114 | -78.52047 | 35087 ft | 512 kts | 64° |
| 2026-05-06 02:16 | 43.76509 | -78.47512 | 35628 ft | 513 kts | 64° |
| 2026-05-06 02:16 | 43.77902 | -78.42970 | 36140 ft | 513 kts | 64° |
| 2026-05-06 02:16 | 43.79287 | -78.38423 | 36640 ft | 513 kts | 63° |
| 2026-05-06 02:16 | 43.80674 | -78.33870 | 37127 ft | 513 kts | 63° |
| 2026-05-06 02:17 | 43.82065 | -78.29314 | 37656 ft | 513 kts | 63° |
| 2026-05-06 02:17 | 43.83454 | -78.24743 | 37974 ft | 517 kts | 63° |
| 2026-05-06 02:17 | 43.84843 | -78.20155 | 38408 ft | 517 kts | 62° |
| 2026-05-06 02:17 | 43.86218 | -78.15604 | 38780 ft | 516 kts | 63° |
| 2026-05-06 02:18 | 43.87618 | -78.10974 | 39164 ft | 514 kts | 63° |
| 2026-05-06 02:18 | 43.88996 | -78.06410 | 39551 ft | 513 kts | 63° |
| 2026-05-06 02:18 | 43.90364 | -78.01857 | 39925 ft | 511 kts | 63° |
| 2026-05-06 02:18 | 43.91728 | -77.97319 | 40287 ft | 509 kts | 63° |
| 2026-05-06 02:19 | 43.93086 | -77.92797 | 40663 ft | 506 kts | 64° |
| 2026-05-06 02:19 | 43.94432 | -77.88298 | 41044 ft | 504 kts | 64° |
| 2026-05-06 02:19 | 43.95773 | -77.83813 | 41366 ft | 503 kts | 64° |
| 2026-05-06 02:19 | 43.97108 | -77.79338 | 41711 ft | 502 kts | 64° |
| 2026-05-06 02:20 | 43.99769 | -77.70403 | 42326 ft | 500 kts | 65° |
| 2026-05-06 02:20 | 44.01090 | -77.65949 | 42635 ft | 498 kts | 65° |
| 2026-05-06 02:20 | 44.02407 | -77.61502 | 42932 ft | 497 kts | 65° |
| 2026-05-06 02:21 | 44.03720 | -77.57064 | 43220 ft | 496 kts | 65° |
| 2026-05-06 02:21 | 44.05025 | -77.52637 | 43503 ft | 495 kts | 65° |
| 2026-05-06 02:21 | 44.06328 | -77.48217 | 43775 ft | 494 kts | 65° |
| 2026-05-06 02:21 | 44.07632 | -77.43805 | 44040 ft | 493 kts | 65° |
| 2026-05-06 02:22 | 44.09018 | -77.39528 | 44276 ft | 491 kts | 63° |
| 2026-05-06 02:22 | 44.10452 | -77.35223 | 44527 ft | 490 kts | 63° |
| 2026-05-06 02:22 | 44.11871 | -77.30917 | 44718 ft | 489 kts | 63° |
| 2026-05-06 02:22 | 44.13297 | -77.26608 | 44883 ft | 490 kts | 63° |
| 2026-05-06 02:23 | 44.14723 | -77.22283 | 44875 ft | 494 kts | 63° |
| 2026-05-06 02:23 | 44.17591 | -77.13520 | 44886 ft | 501 kts | 63° |
| 2026-05-06 02:24 | 44.20522 | -77.04623 | 44882 ft | 508 kts | 63° |
| 2026-05-06 02:24 | 44.23457 | -76.95580 | 44883 ft | 515 kts | 64° |
| 2026-05-06 02:25 | 44.26452 | -76.86419 | 44903 ft | 523 kts | 63° |
| 2026-05-06 02:25 | 44.29460 | -76.77120 | 44904 ft | 528 kts | 64° |
| 2026-05-06 02:26 | 44.32500 | -76.67735 | 44887 ft | 533 kts | 64° |
| 2026-05-06 02:26 | 44.35532 | -76.58289 | 44888 ft | 532 kts | 64° |
| 2026-05-06 02:27 | 44.38531 | -76.48927 | 44881 ft | 530 kts | 64° |
| 2026-05-06 02:27 | 44.41539 | -76.39532 | 44871 ft | 528 kts | 64° |
| 2026-05-06 02:28 | 44.44521 | -76.30165 | 44868 ft | 526 kts | 64° |
| 2026-05-06 02:28 | 44.47487 | -76.20818 | 44859 ft | 525 kts | 64° |
| 2026-05-06 02:29 | 44.50438 | -76.11463 | 44862 ft | 526 kts | 65° |
| 2026-05-06 02:29 | 44.53387 | -76.02059 | 44872 ft | 528 kts | 65° |
| 2026-05-06 02:30 | 44.56346 | -75.92609 | 44861 ft | 530 kts | 65° |
| 2026-05-06 02:30 | 44.59296 | -75.83139 | 44858 ft | 529 kts | 65° |
| 2026-05-06 02:31 | 44.62228 | -75.73704 | 44846 ft | 526 kts | 65° |
| 2026-05-06 02:31 | 44.65116 | -75.64279 | 44843 ft | 524 kts | 68° |
| 2026-05-06 02:32 | 44.67717 | -75.54717 | 44849 ft | 525 kts | 68° |
| 2026-05-06 02:32 | 44.70342 | -75.45116 | 44853 ft | 527 kts | 69° |
| 2026-05-06 02:33 | 44.72991 | -75.35496 | 44851 ft | 528 kts | 66° |
| 2026-05-06 02:33 | 44.73932 | -75.32349 | 44852 ft | 528 kts | 67° |
| 2026-05-06 02:34 | 44.78610 | -75.16388 | 44863 ft | 528 kts | 67° |
| 2026-05-06 02:34 | 44.81412 | -75.06836 | 44856 ft | 527 kts | 67° |
| 2026-05-06 02:35 | 44.84166 | -74.97366 | 44870 ft | 525 kts | 68° |
| 2026-05-06 02:36 | 44.89704 | -74.78250 | 44873 ft | 522 kts | 68° |
| 2026-05-06 02:36 | 44.92240 | -74.68637 | 44878 ft | 523 kts | 73° |
| 2026-05-06 02:37 | 44.94362 | -74.58790 | 44871 ft | 526 kts | 73° |
| 2026-05-06 02:37 | 44.96516 | -74.48956 | 44844 ft | 528 kts | 74° |
| 2026-05-06 02:38 | 44.98654 | -74.39021 | 44829 ft | 530 kts | 74° |
| 2026-05-06 02:38 | 45.00612 | -74.29011 | 44814 ft | 528 kts | 76° |
| 2026-05-06 02:39 | 45.02487 | -74.18985 | 44813 ft | 527 kts | 76° |
| 2026-05-06 02:39 | 45.04340 | -74.08979 | 44811 ft | 525 kts | 76° |
| 2026-05-06 02:40 | 45.06179 | -73.98984 | 44813 ft | 525 kts | 76° |
| 2026-05-06 02:40 | 45.07752 | -73.88919 | 44804 ft | 523 kts | 86° |
| 2026-05-06 02:41 | 45.08177 | -73.78658 | 44820 ft | 523 kts | 89° |
| 2026-05-06 02:41 | 45.08590 | -73.68386 | 44812 ft | 524 kts | 89° |
| 2026-05-06 02:42 | 45.08983 | -73.58054 | 44807 ft | 527 kts | 89° |
| 2026-05-06 02:42 | 45.09352 | -73.47717 | 44814 ft | 531 kts | 89° |
| 2026-05-06 02:43 | 45.09697 | -73.37263 | 44810 ft | 531 kts | 89° |
| 2026-05-06 02:43 | 45.10048 | -73.26842 | 44795 ft | 529 kts | 89° |
| 2026-05-06 02:44 | 45.10378 | -73.16467 | 44800 ft | 526 kts | 89° |
| 2026-05-06 02:44 | 45.10698 | -73.06115 | 44814 ft | 527 kts | 89° |
| 2026-05-06 02:45 | 45.11014 | -72.95724 | 44820 ft | 529 kts | 90° |
| 2026-05-06 02:45 | 45.11320 | -72.85303 | 44805 ft | 530 kts | 90° |
| 2026-05-06 02:46 | 45.11613 | -72.74894 | 44808 ft | 528 kts | 90° |
| 2026-05-06 02:46 | 45.11900 | -72.64533 | 44799 ft | 525 kts | 90° |
| 2026-05-06 02:47 | 45.12173 | -72.54225 | 44797 ft | 523 kts | 90° |
| 2026-05-06 02:47 | 45.12438 | -72.43927 | 44804 ft | 524 kts | 90° |
| 2026-05-06 02:48 | 45.12651 | -72.35327 | 44797 ft | 528 kts | 90° |
| 2026-05-06 02:48 | 45.12903 | -72.24877 | 44805 ft | 533 kts | 90° |
| 2026-05-06 02:49 | 45.13148 | -72.14392 | 44801 ft | 532 kts | 90° |
| 2026-05-06 02:49 | 45.13373 | -72.03949 | 44779 ft | 528 kts | 90° |
| 2026-05-06 02:50 | 45.13600 | -71.93568 | 44793 ft | 528 kts | 90° |
| 2026-05-06 02:50 | 45.13808 | -71.83172 | 44800 ft | 528 kts | 90° |
| 2026-05-06 02:51 | 45.14013 | -71.72768 | 44808 ft | 529 kts | 90° |
| 2026-05-06 02:51 | 45.14204 | -71.62336 | 44792 ft | 530 kts | 90° |
| 2026-05-06 02:52 | 45.14067 | -71.51916 | 44807 ft | 529 kts | 95° |
| 2026-05-06 02:52 | 45.13686 | -71.41557 | 44809 ft | 530 kts | 95° |
| 2026-05-06 02:53 | 45.13300 | -71.31126 | 44809 ft | 531 kts | 95° |
| 2026-05-06 02:53 | 45.12912 | -71.20694 | 44800 ft | 530 kts | 95° |
| 2026-05-06 02:54 | 45.12507 | -71.10299 | 44802 ft | 527 kts | 95° |
| 2026-05-06 02:54 | 45.12101 | -70.99957 | 44800 ft | 525 kts | 95° |
| 2026-05-06 02:55 | 45.11686 | -70.89665 | 44802 ft | 523 kts | 95° |
| 2026-05-06 02:55 | 45.11261 | -70.79370 | 44816 ft | 523 kts | 95° |
| 2026-05-06 02:56 | 45.10825 | -70.69107 | 44813 ft | 520 kts | 95° |
| 2026-05-06 02:56 | 45.10391 | -70.58909 | 44810 ft | 518 kts | 95° |
| 2026-05-06 02:57 | 45.09940 | -70.48731 | 44801 ft | 518 kts | 95° |
| 2026-05-06 02:57 | 45.09486 | -70.38637 | 44811 ft | 515 kts | 95° |
| 2026-05-06 02:58 | 45.09029 | -70.28579 | 44801 ft | 509 kts | 95° |
| 2026-05-06 02:58 | 45.08565 | -70.18608 | 44800 ft | 508 kts | 95° |
| 2026-05-06 02:59 | 45.08081 | -70.08608 | 44804 ft | 511 kts | 95° |
| 2026-05-06 02:59 | 45.07601 | -69.98535 | 44809 ft | 514 kts | 95° |
| 2026-05-06 03:00 | 45.07100 | -69.88432 | 44817 ft | 515 kts | 95° |
| 2026-05-06 03:00 | 45.06595 | -69.78335 | 44811 ft | 514 kts | 95° |
| 2026-05-06 03:01 | 45.06081 | -69.68272 | 44808 ft | 512 kts | 96° |
| 2026-05-06 03:01 | 45.05562 | -69.58287 | 44809 ft | 505 kts | 96° |
| 2026-05-06 03:02 | 45.05043 | -69.48458 | 44802 ft | 498 kts | 96° |
| 2026-05-06 03:02 | 45.04508 | -69.38672 | 44805 ft | 501 kts | 96° |
| 2026-05-06 03:03 | 45.03985 | -69.28875 | 44818 ft | 505 kts | 96° |
| 2026-05-06 03:03 | 45.03440 | -69.18951 | 44820 ft | 506 kts | 97° |
| 2026-05-06 03:04 | 45.02871 | -69.09068 | 44827 ft | 503 kts | 97° |
| 2026-05-06 03:04 | 45.02317 | -68.99246 | 44828 ft | 500 kts | 97° |
| 2026-05-06 03:05 | 45.01746 | -68.89474 | 44824 ft | 498 kts | 97° |
| 2026-05-06 03:05 | 45.01171 | -68.79698 | 44830 ft | 500 kts | 97° |
| 2026-05-06 03:06 | 45.00582 | -68.69876 | 44851 ft | 503 kts | 97° |
| 2026-05-06 03:06 | 44.99986 | -68.60014 | 44857 ft | 505 kts | 97° |
| 2026-05-06 03:07 | 44.99377 | -68.50130 | 44870 ft | 504 kts | 97° |
| 2026-05-06 03:07 | 44.98762 | -68.40270 | 44866 ft | 503 kts | 97° |
| 2026-05-06 03:08 | 44.98145 | -68.30509 | 44864 ft | 502 kts | 97° |
| 2026-05-06 03:08 | 44.97515 | -68.20695 | 44866 ft | 501 kts | 98° |
| 2026-05-06 03:09 | 44.96878 | -68.10898 | 44865 ft | 501 kts | 98° |
| 2026-05-06 03:09 | 44.96233 | -68.01101 | 44877 ft | 502 kts | 97° |
| 2026-05-06 03:10 | 44.95577 | -67.91281 | 44891 ft | 503 kts | 98° |
| 2026-05-06 03:10 | 44.94911 | -67.81426 | 44880 ft | 505 kts | 98° |
| 2026-05-06 03:11 | 44.94234 | -67.71547 | 44891 ft | 506 kts | 98° |
| 2026-05-06 03:11 | 44.93549 | -67.61670 | 44885 ft | 504 kts | 98° |
| 2026-05-06 03:12 | 44.92859 | -67.51854 | 44895 ft | 501 kts | 98° |
| 2026-05-06 03:12 | 44.92165 | -67.42096 | 44896 ft | 498 kts | 98° |
| 2026-05-06 03:13 | 44.91466 | -67.32377 | 44897 ft | 499 kts | 98° |
| 2026-05-06 03:13 | 44.90756 | -67.22641 | 44911 ft | 499 kts | 98° |
| 2026-05-06 03:14 | 44.90228 | -67.12870 | 44919 ft | 501 kts | 91° |
| 2026-05-06 03:14 | 44.90244 | -67.03093 | 44926 ft | 502 kts | 92° |
| 2026-05-06 03:15 | 44.90214 | -66.93238 | 44930 ft | 502 kts | 92° |
| 2026-05-06 03:15 | 44.90199 | -66.83381 | 44927 ft | 502 kts | 92° |
| 2026-05-06 03:16 | 44.90162 | -66.73531 | 44924 ft | 502 kts | 92° |
| 2026-05-06 03:16 | 44.90124 | -66.63688 | 44931 ft | 502 kts | 92° |
| 2026-05-06 03:17 | 44.90074 | -66.53854 | 44931 ft | 501 kts | 92° |
| 2026-05-06 03:17 | 44.90017 | -66.44022 | 44958 ft | 501 kts | 92° |
| 2026-05-06 03:18 | 44.89951 | -66.34197 | 44957 ft | 501 kts | 92° |
| 2026-05-06 03:18 | 44.89876 | -66.24371 | 44957 ft | 501 kts | 92° |
| 2026-05-06 03:18 | 44.89835 | -66.19417 | 44313 ft | 509 kts | 92° |
| 2026-05-06 03:19 | 44.89792 | -66.14417 | 43488 ft | 510 kts | 92° |
| 2026-05-06 03:19 | 44.89749 | -66.09452 | 42678 ft | 498 kts | 92° |
| 2026-05-06 03:19 | 44.89706 | -66.04668 | 41877 ft | 478 kts | 93° |
| 2026-05-06 03:19 | 44.89659 | -66.00050 | 41120 ft | 465 kts | 93° |
| 2026-05-06 03:20 | 44.89558 | -65.90978 | 39429 ft | 468 kts | 93° |
| 2026-05-06 03:20 | 44.89507 | -65.86361 | 38496 ft | 474 kts | 93° |
| 2026-05-06 03:20 | 44.89456 | -65.81711 | 37387 ft | 474 kts | 93° |
| 2026-05-06 03:21 | 44.89402 | -65.77071 | 36327 ft | 473 kts | 93° |
| 2026-05-06 03:21 | 44.89344 | -65.72443 | 35314 ft | 471 kts | 93° |
| 2026-05-06 03:21 | 44.89284 | -65.67829 | 34319 ft | 470 kts | 93° |
| 2026-05-06 03:21 | 44.89222 | -65.63168 | 33549 ft | 482 kts | 93° |
| 2026-05-06 03:22 | 44.89156 | -65.58384 | 32900 ft | 493 kts | 93° |
| 2026-05-06 03:22 | 44.89090 | -65.53529 | 32242 ft | 496 kts | 93° |
| 2026-05-06 03:22 | 44.89023 | -65.48674 | 31590 ft | 494 kts | 93° |
| 2026-05-06 03:22 | 44.88950 | -65.43834 | 30938 ft | 494 kts | 93° |
| 2026-05-06 03:23 | 44.88875 | -65.39054 | 30299 ft | 495 kts | 93° |
| 2026-05-06 03:23 | 44.88798 | -65.34186 | 29610 ft | 497 kts | 93° |
| 2026-05-06 03:23 | 44.88721 | -65.29329 | 28957 ft | 493 kts | 93° |
| 2026-05-06 03:23 | 44.88643 | -65.24523 | 28304 ft | 486 kts | 93° |
| 2026-05-06 03:24 | 44.88562 | -65.19794 | 27673 ft | 479 kts | 93° |
| 2026-05-06 03:24 | 44.88480 | -65.15130 | 27047 ft | 473 kts | 93° |
| 2026-05-06 03:24 | 44.88398 | -65.10518 | 26435 ft | 468 kts | 94° |
| 2026-05-06 03:24 | 44.88315 | -65.05947 | 25821 ft | 465 kts | 94° |
| 2026-05-06 03:25 | 44.88230 | -65.01410 | 25215 ft | 463 kts | 94° |
| 2026-05-06 03:25 | 44.88144 | -64.96871 | 24606 ft | 461 kts | 94° |
| 2026-05-06 03:25 | 44.88057 | -64.92368 | 24002 ft | 457 kts | 94° |
| 2026-05-06 03:25 | 44.87969 | -64.87909 | 23371 ft | 453 kts | 94° |
| 2026-05-06 03:26 | 44.87881 | -64.83496 | 22755 ft | 446 kts | 95° |
| 2026-05-06 03:26 | 44.87791 | -64.79157 | 22172 ft | 441 kts | 95° |
| 2026-05-06 03:26 | 44.87699 | -64.74850 | 21593 ft | 438 kts | 95° |
| 2026-05-06 03:26 | 44.87608 | -64.70569 | 21017 ft | 436 kts | 95° |
| 2026-05-06 03:27 | 44.87516 | -64.66312 | 20441 ft | 434 kts | 95° |
| 2026-05-06 03:27 | 44.87423 | -64.62062 | 19871 ft | 432 kts | 95° |
| 2026-05-06 03:27 | 44.87328 | -64.57844 | 19302 ft | 429 kts | 95° |
| 2026-05-06 03:27 | 44.87234 | -64.53712 | 18751 ft | 425 kts | 95° |
| 2026-05-06 03:28 | 44.87138 | -64.49557 | 18183 ft | 422 kts | 95° |
| 2026-05-06 03:28 | 44.87041 | -64.45442 | 17594 ft | 418 kts | 95° |
| 2026-05-06 03:28 | 44.86944 | -64.41372 | 17042 ft | 413 kts | 96° |
| 2026-05-06 03:28 | 44.86846 | -64.37335 | 16502 ft | 410 kts | 96° |
| 2026-05-06 03:29 | 44.86747 | -64.33334 | 16095 ft | 406 kts | 96° |
| 2026-05-06 03:29 | 44.86648 | -64.29352 | 15591 ft | 407 kts | 96° |
| 2026-05-06 03:29 | 44.86546 | -64.25356 | 15055 ft | 408 kts | 96° |
| 2026-05-06 03:29 | 44.86443 | -64.21370 | 14519 ft | 405 kts | 96° |
| 2026-05-06 03:30 | 44.86153 | -64.17471 | 14005 ft | 395 kts | 102° |
| 2026-05-06 03:30 | 44.85774 | -64.13716 | 13467 ft | 378 kts | 102° |
| 2026-05-06 03:30 | 44.85432 | -64.10133 | 12975 ft | 360 kts | 102° |
| 2026-05-06 03:30 | 44.85105 | -64.06705 | 12510 ft | 346 kts | 103° |
| 2026-05-06 03:31 | 44.84782 | -64.03408 | 12061 ft | 334 kts | 103° |
| 2026-05-06 03:31 | 44.84466 | -64.00222 | 11647 ft | 324 kts | 103° |
| 2026-05-06 03:31 | 44.84160 | -63.97111 | 11232 ft | 318 kts | 103° |
| 2026-05-06 03:31 | 44.83857 | -63.94040 | 10818 ft | 316 kts | 104° |
| 2026-05-06 03:32 | 44.83551 | -63.90963 | 10284 ft | 320 kts | 104° |
| 2026-05-06 03:32 | 44.83242 | -63.87856 | 9825 ft | 319 kts | 104° |
| 2026-05-06 03:32 | 44.82944 | -63.84785 | 9376 ft | 314 kts | 104° |
| 2026-05-06 03:32 | 44.82642 | -63.81776 | 8968 ft | 309 kts | 104° |
| 2026-05-06 03:33 | 44.82340 | -63.78800 | 8561 ft | 310 kts | 104° |
| 2026-05-06 03:33 | 44.82037 | -63.75779 | 8157 ft | 313 kts | 104° |
| 2026-05-06 03:33 | 44.81734 | -63.72735 | 7761 ft | 315 kts | 104° |
| 2026-05-06 03:33 | 44.81428 | -63.69681 | 7351 ft | 313 kts | 104° |
| 2026-05-06 03:34 | 44.81126 | -63.66673 | 6936 ft | 307 kts | 104° |
| 2026-05-06 03:34 | 44.80828 | -63.63733 | 6533 ft | 300 kts | 104° |
| 2026-05-06 03:34 | 44.80535 | -63.60840 | 6129 ft | 295 kts | 105° |
| 2026-05-06 03:34 | 44.80245 | -63.57998 | 5742 ft | 291 kts | 105° |
| 2026-05-06 03:35 | 44.79957 | -63.55209 | 5370 ft | 286 kts | 106° |
| 2026-05-06 03:35 | 44.79405 | -63.52572 | 5042 ft | 273 kts | 123° |
| 2026-05-06 03:35 | 44.78512 | -63.50378 | 5021 ft | 244 kts | 138° |
| 2026-05-06 03:35 | 44.77523 | -63.48489 | 4918 ft | 241 kts | 139° |
| 2026-05-06 03:36 | 44.76537 | -63.46508 | 4504 ft | 254 kts | 135° |
| 2026-05-06 03:36 | 44.75555 | -63.44455 | 4238 ft | 248 kts | 135° |
| 2026-05-06 03:36 | 44.74621 | -63.42490 | 4124 ft | 237 kts | 139° |
| 2026-05-06 03:36 | 44.73711 | -63.40550 | 3954 ft | 246 kts | 126° |
| 2026-05-06 03:37 | 44.73398 | -63.38099 | 3793 ft | 266 kts | 96° |
| 2026-05-06 03:37 | 44.73881 | -63.35519 | 3598 ft | 283 kts | 62° |
| 2026-05-06 03:37 | 44.74671 | -63.34071 | 3485 ft | 282 kts | 40° |
| 2026-05-06 03:37 | 44.76296 | -63.32717 | 3265 ft | 263 kts | 8° |
| 2026-05-06 03:38 | 44.77992 | -63.32465 | 3067 ft | 232 kts | 340° |
| 2026-05-06 03:38 | 44.79408 | -63.33051 | 3024 ft | 196 kts | 317° |
| 2026-05-06 03:38 | 44.80433 | -63.34047 | 3004 ft | 166 kts | 298° |
| 2026-05-06 03:38 | 44.81106 | -63.35198 | 2992 ft | 141 kts | 286° |
| 2026-05-06 03:39 | 44.81644 | -63.36281 | 2992 ft | 129 kts | 285° |
| 2026-05-06 03:39 | 44.82166 | -63.37341 | 2784 ft | 136 kts | 285° |
| 2026-05-06 03:39 | 44.82716 | -63.38449 | 2557 ft | 139 kts | 287° |
| 2026-05-06 03:39 | 44.83284 | -63.39564 | 2337 ft | 140 kts | 287° |
| 2026-05-06 03:40 | 44.83825 | -63.40631 | 2087 ft | 129 kts | 285° |
| 2026-05-06 03:40 | 44.84330 | -63.41605 | 1911 ft | 106 kts | 282° |
| 2026-05-06 03:40 | 44.84736 | -63.42440 | 1803 ft | 108 kts | 279° |
| 2026-05-06 03:40 | 44.85177 | -63.43390 | 1807 ft | 123 kts | 283° |
| 2026-05-06 03:41 | 44.85686 | -63.44390 | 1805 ft | 127 kts | 284° |
| 2026-05-06 03:41 | 44.86325 | -63.45374 | 1541 ft | 141 kts | 297° |
| 2026-05-06 03:41 | 44.86879 | -63.46388 | 1169 ft | 134 kts | 288° |
| 2026-05-06 03:41 | 44.87334 | -63.47644 | 920 ft | 147 kts | 293° |
| 2026-05-06 03:42 | 44.87902 | -63.48811 | 574 ft | 137 kts | 292° |
| 2026-05-06 03:42 | 44.88478 | -63.49919 | 452 ft | 129 kts | 291° |
| 2026-05-06 03:42 | 44.88857 | -63.50727 | 451 ft | 75 kts | 308° |
| 2026-05-06 03:42 | 44.89082 | -63.51168 | 450 ft | 10 kts | 305° |
| 2026-05-06 03:43 | 44.89084 | -63.51173 | 450 ft | 2 kts | 305° |
| 2026-05-06 03:43 | 44.89062 | -63.51230 | 451 ft | 8 kts | 219° |
| 2026-05-06 03:43 | 44.89012 | -63.51279 | 451 ft | 10 kts | 215° |
| 2026-05-06 03:43 | 44.88960 | -63.51321 | 451 ft | 10 kts | 188° |
| 2026-05-06 03:44 | 44.88876 | -63.51309 | 451 ft | 14 kts | 169° |
| 2026-05-06 03:44 | 44.88766 | -63.51282 | 451 ft | 18 kts | 169° |
| 2026-05-06 03:44 | 44.88635 | -63.51249 | 451 ft | 20 kts | 171° |
| 2026-05-06 03:44 | 44.88489 | -63.51214 | 452 ft | 23 kts | 171° |
| 2026-05-06 03:45 | 44.88428 | -63.51198 | 452 ft | 0 kts | 169° |
| 2026-05-06 03:45 | 44.88384 | -63.51245 | 452 ft | 19 kts | 221° |
| 2026-05-06 03:45 | 44.88231 | -63.51409 | 452 ft | 34 kts | 214° |
| 2026-05-06 03:45 | 44.88008 | -63.51627 | 453 ft | 42 kts | 216° |
| 2026-05-06 03:46 | 44.87758 | -63.51880 | 454 ft | 46 kts | 215° |
| 2026-05-06 03:46 | 44.87544 | -63.52090 | 454 ft | 10 kts | 216° |
| 2026-05-06 03:46 | 44.87533 | -63.52145 | 454 ft | 9 kts | 296° |
| 2026-05-06 03:46 | 44.87563 | -63.52211 | 454 ft | 0 kts | 304° |
| 2026-05-06 03:47 | 44.87564 | -63.52234 | 454 ft | 5 kts | 251° |
| 2026-05-06 03:47 | 44.87524 | -63.52302 | 454 ft | 13 kts | 226° |
| 2026-05-06 03:47 | 44.87477 | -63.52350 | 454 ft | 10 kts | 209° |
| 2026-05-06 03:47 | 44.87442 | -63.52386 | 455 ft | 4 kts | 269° |
| 2026-05-06 03:48 | 44.87455 | -63.52394 | 455 ft | 2 kts | 14° |
| 2026-05-06 03:48 | 44.87462 | -63.52387 | 455 ft | 0 kts | 36° |